Time,TemperatureF,DewpointF,PressureIn,WindDirection,WindDirectionDegrees,WindSpeedMPH,WindSpeedGustMPH,Humidity,HourlyPrecipIn,Conditions,Clouds,dailyrainin,SoftwareType,DateUTC
2013-04-04 00:01:00,41.0,30.9,30.24,NE,45,0.0,1.0,67,0.00,CLR,FEW,0.00,WeatherDisplay:10.37,2013-04-03 23:01:00,
2013-04-04 00:30:00,40.8,28.4,30.24,NE,45,0.0,5.0,61,0.00,CLR,FEW,0.00,WeatherDisplay:10.37,2013-04-03 23:30:00,
2013-04-04 01:00:00,40.6,27.0,30.24,NE,45,0.0,5.0,58,0.00,CLR,FEW,0.00,WeatherDisplay:10.37,2013-04-04 00:00:00,
2013-04-04 01:30:00,40.6,27.8,30.24,NE,45,0.0,1.0,60,0.00,CLR,FEW,0.00,WeatherDisplay:10.37,2013-04-04 00:30:00,
2013-04-04 02:00:00,40.1,27.3,30.24,NE,45,0.0,1.0,60,0.00,CLR,FEW,0.00,WeatherDisplay:10.37,2013-04-04 01:00:00,
2013-04-04 02:30:00,39.9,26.7,30.24,NE,45,0.0,6.0,59,0.00,CLR,FEW,0.00,WeatherDisplay:10.37,2013-04-04 01:30:00,
2013-04-04 03:00:00,39.9,26.7,30.24,NE,45,0.0,6.0,59,0.00,CLR,FEW,0.00,WeatherDisplay:10.37,2013-04-04 02:00:00,
2013-04-04 03:30:00,39.9,26.7,30.24,NE,45,0.0,6.0,59,0.00,CLR,FEW,0.00,WeatherDisplay:10.37,2013-04-04 02:30:00,
2013-04-04 04:00:00,39.0,25.9,30.23,NE,45,0.0,6.0,59,0.00,CLR,FEW,0.00,WeatherDisplay:10.37,2013-04-04 03:00:00,
2013-04-04 04:29:00,39.0,25.9,30.23,NE,45,0.0,0.0,59,0.00,CLR,FEW,0.00,WeatherDisplay:10.37,2013-04-04 03:29:00,
2013-04-04 05:00:00,38.8,24.9,30.23,NE,45,0.0,0.0,57,0.00,CLR,FEW,0.00,WeatherDisplay:10.37,2013-04-04 04:00:00,
2013-04-04 05:29:00,38.5,24.6,30.23,NE,45,0.0,0.0,57,0.00,CLR,FEW,0.00,WeatherDisplay:10.37,2013-04-04 04:29:00,
2013-04-04 05:59:00,38.7,25.1,30.22,NE,45,0.0,0.0,58,0.00,CLR,FEW,0.00,WeatherDisplay:10.37,2013-04-04 04:59:00,
2013-04-04 06:29:00,38.7,26.7,30.22,NE,45,0.0,2.0,62,0.00,CLR,FEW,0.00,WeatherDisplay:10.37,2013-04-04 05:29:00,
2013-04-04 06:59:00,37.9,24.5,30.23,NE,45,0.0,0.0,58,0.00,CLR,FEW,0.00,WeatherDisplay:10.37,2013-04-04 05:59:00,
2013-04-04 07:29:00,38.3,25.6,30.23,NE,45,0.0,2.0,60,0.00,CLR,FEW,0.00,WeatherDisplay:10.37,2013-04-04 06:29:00,
2013-04-04 08:29:00,41.2,26.7,30.23,NE,45,0.0,7.0,56,0.00,CLR,FEW,0.00,WeatherDisplay:10.37,2013-04-04 07:29:00,
2013-04-04 08:59:00,42.6,27.1,30.24,NE,45,0.0,10.0,54,0.00,CLR,FEW,0.00,WeatherDisplay:10.37,2013-04-04 07:59:00,
2013-04-04 09:29:00,43.1,27.6,30.24,NE,45,0.0,7.0,54,0.00,CLR,FEW,0.00,WeatherDisplay:10.37,2013-04-04 08:29:00,
2013-04-04 09:59:00,43.5,28.0,30.24,NE,45,0.0,8.0,54,0.00,CLR,FEW,0.00,WeatherDisplay:10.37,2013-04-04 08:59:00,
2013-04-04 10:29:00,43.9,26.9,30.23,NE,45,0.0,13.0,51,0.00,CLR,FEW,0.00,WeatherDisplay:10.37,2013-04-04 09:29:00,
2013-04-04 10:59:00,44.2,27.7,30.23,NE,45,0.0,12.0,52,0.00,CLR,FEW,0.00,WeatherDisplay:10.37,2013-04-04 09:59:00,
2013-04-04 11:29:00,45.1,28.1,30.24,NE,45,0.0,8.0,51,0.00,CLR,FEW,0.00,WeatherDisplay:10.37,2013-04-04 10:29:00,
2013-04-04 11:59:00,46.0,27.4,30.23,NE,45,0.0,8.0,48,0.00,CLR,FEW,0.00,WeatherDisplay:10.37,2013-04-04 10:59:00,
2013-04-04 12:29:00,46.2,27.6,30.24,NE,45,0.0,12.0,48,0.00,CLR,FEW,0.00,WeatherDisplay:10.37,2013-04-04 11:29:00,
2013-04-04 12:59:00,46.2,29.5,30.23,NE,45,0.0,8.0,52,0.00,CLR,FEW,0.00,WeatherDisplay:10.37,2013-04-04 11:59:00,
2013-04-04 13:29:00,47.5,29.7,30.24,NE,45,0.0,7.0,50,0.00,CLR,FEW,0.00,WeatherDisplay:10.37,2013-04-04 12:29:00,
2013-04-04 13:59:00,47.3,28.6,30.23,NE,45,0.0,11.0,48,0.00,CLR,FEW,0.00,WeatherDisplay:10.37,2013-04-04 12:59:00,
2013-04-04 14:29:00,48.0,27.7,30.23,NE,45,0.0,7.0,45,0.00,CLR,FEW,0.00,WeatherDisplay:10.37,2013-04-04 13:29:00,
2013-04-04 14:59:00,48.0,28.2,30.22,NE,45,0.0,8.0,46,0.00,CLR,FEW,0.00,WeatherDisplay:10.37,2013-04-04 13:59:00,
2013-04-04 15:59:00,46.4,26.7,30.21,NE,45,0.0,13.0,46,0.00,CLR,FEW,0.00,WeatherDisplay:10.37,2013-04-04 14:59:00,
2013-04-04 16:29:00,46.9,26.1,30.21,NE,45,0.0,15.0,44,0.00,CLR,FEW,0.00,WeatherDisplay:10.37,2013-04-04 15:29:00,
2013-04-04 16:59:00,47.4,27.1,30.21,NE,45,0.0,15.0,45,0.00,CLR,FEW,0.00,WeatherDisplay:10.37,2013-04-04 15:59:00,
2013-04-04 17:29:00,47.1,26.8,30.21,NE,45,0.0,15.0,45,0.00,CLR,FEW,0.00,WeatherDisplay:10.37,2013-04-04 16:29:00,
2013-04-04 17:59:00,46.9,26.1,30.20,NE,45,0.0,9.0,44,0.00,CLR,FEW,0.00,WeatherDisplay:10.37,2013-04-04 16:59:00,
2013-04-04 18:29:00,45.0,26.9,30.21,NE,45,0.0,7.0,49,0.00,CLR,FEW,0.00,WeatherDisplay:10.37,2013-04-04 17:29:00,
2013-04-04 18:59:00,45.3,26.3,30.21,NE,45,0.0,3.0,47,0.00,CLR,FEW,0.00,WeatherDisplay:10.37,2013-04-04 17:59:00,
2013-04-04 19:29:00,44.2,26.3,30.21,NE,45,0.0,2.0,49,0.00,CLR,FEW,0.00,WeatherDisplay:10.37,2013-04-04 18:29:00,
2013-04-04 19:59:00,43.3,25.9,30.21,NE,45,0.0,3.0,50,0.00,CLR,FEW,0.00,WeatherDisplay:10.37,2013-04-04 18:59:00,
2013-04-04 20:29:00,43.3,25.9,30.22,NE,45,0.0,4.0,50,0.00,CLR,FEW,0.00,WeatherDisplay:10.37,2013-04-04 19:29:00,
2013-04-04 20:59:00,43.3,24.4,30.22,NE,45,0.0,4.0,47,0.00,CLR,FEW,0.00,WeatherDisplay:10.37,2013-04-04 19:59:00,
2013-04-04 21:29:00,43.2,24.3,30.22,NE,45,0.0,2.0,47,0.00,CLR,FEW,0.00,WeatherDisplay:10.37,2013-04-04 20:29:00,
2013-04-04 21:59:00,42.6,24.3,30.23,NE,45,0.0,3.0,48,0.00,CLR,FEW,0.00,WeatherDisplay:10.37,2013-04-04 20:59:00,
2013-04-04 22:29:00,41.9,24.6,30.23,NE,45,0.0,0.0,50,0.00,CLR,FEW,0.00,WeatherDisplay:10.37,2013-04-04 21:29:00,
2013-04-04 22:59:00,41.4,25.5,30.23,NE,45,0.0,1.0,53,0.00,CLR,FEW,0.00,WeatherDisplay:10.37,2013-04-04 21:59:00,
2013-04-04 23:29:00,41.1,25.7,30.23,NE,45,0.0,2.0,54,0.00,CLR,FEW,0.00,WeatherDisplay:10.37,2013-04-04 22:29:00,
2013-04-04 23:59:00,41.2,25.8,30.23,NE,45,0.0,4.0,54,0.00,CLR,FEW,0.00,WeatherDisplay:10.37,2013-04-04 22:59:00,